Time;durP1;ratioP1;P1;durP2;ratioP2;P2;SDS_P1;SDS_P2;PMS_P1;PMS_P2;Temp;Humidity;BMP_temperature;BMP_pressure;BME280_temperature;BME280_humidity;BME280_pressure;Samples;Min_cycle;Max_cycle;Signal;HPM_P1;HPM_P2
2021/11/13 00:00:58;;;;;;;28.27;15.88;;;5.60;99.90;;;;;;5056601;28;20040;-59
2021/11/13 00:03:23;;;;;;;34.80;16.40;;;5.70;99.90;;;;;;5051815;28;20064;-60
2021/11/13 00:05:49;;;;;;;39.33;16.58;;;5.70;99.90;;;;;;5052023;28;20057;-61
2021/11/13 00:08:14;;;;;;;31.45;15.27;;;5.70;99.90;;;;;;5063937;28;20028;-59
2021/11/13 00:10:41;;;;;;;28.77;15.23;;;5.70;99.90;;;;;;5066713;28;20025;-60
2021/11/13 00:13:08;;;;;;;30.02;16.35;;;5.80;99.90;;;;;;5052141;28;20112;-58
2021/11/13 00:15:34;;;;;;;32.70;15.10;;;5.80;99.90;;;;;;5054369;28;20480;-61
2021/11/13 00:18:00;;;;;;;34.70;16.65;;;5.80;99.90;;;;;;5058058;28;20037;-59
2021/11/13 00:20:27;;;;;;;29.17;15.18;;;5.80;99.90;;;;;;5062681;28;20039;-59
2021/11/13 00:22:54;;;;;;;29.17;15.23;;;5.80;99.90;;;;;;5056069;28;20650;-62
2021/11/13 00:25:20;;;;;;;29.98;16.05;;;5.80;99.90;;;;;;5062923;28;20035;-61
2021/11/13 00:27:46;;;;;;;29.05;14.60;;;5.80;99.90;;;;;;5067883;28;20033;-62
2021/11/13 00:30:13;;;;;;;29.77;15.38;;;5.80;99.90;;;;;;5054775;28;20028;-61
2021/11/13 00:32:39;;;;;;;28.38;15.68;;;5.80;99.90;;;;;;5059498;28;20029;-61
2021/11/13 00:35:05;;;;;;;28.13;14.63;;;5.90;99.90;;;;;;5055285;28;20040;-63
2021/11/13 00:37:31;;;;;;;29.30;14.63;;;5.90;99.90;;;;;;5056696;28;20021;-60
2021/11/13 00:39:56;;;;;;;28.70;14.30;;;5.90;99.90;;;;;;5055697;28;20029;-59
2021/11/13 00:42:22;;;;;;;28.15;15.32;;;5.90;99.90;;;;;;5058210;28;20025;-59
2021/11/13 00:44:48;;;;;;;27.55;14.38;;;5.80;99.90;;;;;;5057727;28;20058;-59
2021/11/13 00:47:15;;;;;;;28.30;15.63;;;5.80;99.90;;;;;;5055632;28;20075;-60
2021/11/13 00:49:41;;;;;;;30.85;15.52;;;5.90;99.90;;;;;;5054908;28;20407;-60
2021/11/13 00:52:06;;;;;;;26.05;14.35;;;5.90;99.90;;;;;;5058334;28;20029;-61
2021/11/13 00:54:33;;;;;;;33.00;14.88;;;5.90;99.90;;;;;;5053853;28;20074;-58
2021/11/13 00:56:59;;;;;;;27.83;14.32;;;5.90;99.90;;;;;;5073426;28;20107;-61
2021/11/13 00:59:25;;;;;;;33.45;14.43;;;6.00;99.90;;;;;;5057764;28;20113;-63
2021/11/13 01:01:50;;;;;;;26.90;13.93;;;6.00;99.90;;;;;;5054871;28;20099;-62
2021/11/13 01:04:16;;;;;;;27.27;14.98;;;6.00;99.90;;;;;;5060554;28;20036;-60
2021/11/13 01:06:41;;;;;;;26.02;13.90;;;6.10;99.90;;;;;;5055829;28;20075;-60
2021/11/13 01:09:07;;;;;;;34.00;15.07;;;6.00;99.90;;;;;;5055055;28;20039;-60
2021/11/13 01:11:33;;;;;;;27.65;14.20;;;6.00;99.90;;;;;;5055489;28;20059;-61
2021/11/13 01:14:00;;;;;;;25.27;14.38;;;6.00;99.90;;;;;;5063285;28;20502;-60
2021/11/13 01:16:26;;;;;;;27.65;14.48;;;6.00;99.90;;;;;;5067011;28;20574;-61
2021/11/13 01:18:53;;;;;;;28.92;13.90;;;5.90;99.90;;;;;;5057603;28;20586;-61
2021/11/13 01:21:20;;;;;;;27.45;14.63;;;5.90;99.90;;;;;;5062741;28;20029;-62
2021/11/13 01:23:46;;;;;;;25.40;14.75;;;5.80;99.90;;;;;;5063225;28;20487;-61
2021/11/13 01:26:11;;;;;;;29.50;14.75;;;5.70;99.90;;;;;;5060319;28;20033;-62
2021/11/13 01:28:37;;;;;;;24.42;13.18;;;5.70;99.90;;;;;;5060548;28;20033;-61
2021/11/13 01:31:06;;;;;;;26.30;14.18;;;5.70;99.90;;;;;;5064243;28;20406;-59
2021/11/13 01:33:36;;;;;;;29.67;14.20;;;5.70;99.90;;;;;;5057122;28;20441;-62
2021/11/13 01:36:03;;;;;;;27.67;14.07;;;5.70;99.90;;;;;;5058294;28;20032;-60
2021/11/13 01:38:29;;;;;;;27.08;14.23;;;5.80;99.90;;;;;;5053623;28;20037;-62
2021/11/13 01:40:55;;;;;;;26.35;13.10;;;5.80;99.90;;;;;;5060558;28;20029;-60
2021/11/13 01:43:21;;;;;;;24.08;14.02;;;5.80;99.90;;;;;;5063009;28;20031;-60
2021/11/13 01:45:46;;;;;;;27.13;14.95;;;5.80;99.90;;;;;;5055491;28;20032;-60
2021/11/13 01:48:12;;;;;;;29.02;14.50;;;5.80;99.90;;;;;;5052363;28;20108;-60
2021/11/13 01:50:42;;;;;;;29.92;13.55;;;5.80;99.90;;;;;;5052187;28;20056;-61
2021/11/13 01:53:09;;;;;;;29.02;15.15;;;5.80;99.90;;;;;;5053586;28;20155;-62
2021/11/13 01:55:36;;;;;;;30.23;14.55;;;5.80;99.90;;;;;;5060749;28;20036;-62
2021/11/13 01:58:11;;;;;;;32.15;14.10;;;5.80;99.90;;;;;;5054054;28;20025;-62
2021/11/13 02:00:50;;;;;;;32.95;15.10;;;5.80;99.90;;;;;;5065707;28;20024;-62
2021/11/13 02:03:17;;;;;;;28.63;14.75;;;5.80;99.90;;;;;;5063306;28;20376;-62
2021/11/13 02:05:42;;;;;;;31.85;15.60;;;5.80;99.90;;;;;;5054581;28;20036;-62
2021/11/13 02:08:08;;;;;;;30.55;14.75;;;5.80;99.90;;;;;;5035507;28;20029;-62
2021/11/13 02:10:34;;;;;;;27.33;15.40;;;5.90;99.90;;;;;;5059667;28;20033;-62
2021/11/13 02:13:00;;;;;;;27.92;14.98;;;5.90;99.90;;;;;;5058069;28;20044;-61
2021/11/13 02:15:27;;;;;;;32.78;15.90;;;6.00;99.90;;;;;;5054145;28;20021;-62
2021/11/13 02:17:55;;;;;;;31.42;15.23;;;6.00;99.90;;;;;;5058907;28;20021;-60
2021/11/13 02:20:30;;;;;;;30.75;17.27;;;6.10;99.90;;;;;;5060896;28;20032;-62
2021/11/13 02:23:03;;;;;;;31.25;16.55;;;6.10;99.90;;;;;;5061442;28;20017;-62
2021/11/13 02:25:30;;;;;;;31.40;14.77;;;6.20;99.90;;;;;;5063067;28;20099;-63
2021/11/13 02:27:57;;;;;;;30.40;15.32;;;6.20;99.90;;;;;;5063950;28;20028;-62
2021/11/13 02:30:23;;;;;;;30.15;15.63;;;6.30;99.90;;;;;;5052805;28;20417;-61
2021/11/13 02:32:50;;;;;;;27.25;15.32;;;6.20;99.90;;;;;;5039723;28;20056;-62
2021/11/13 02:35:16;;;;;;;37.05;16.30;;;6.30;99.90;;;;;;5052785;28;20040;-59
2021/11/13 02:37:43;;;;;;;32.47;17.20;;;6.30;99.90;;;;;;5068272;28;20016;-60
2021/11/13 02:40:09;;;;;;;30.58;16.08;;;6.40;99.90;;;;;;5064404;28;20047;-62
2021/11/13 02:42:36;;;;;;;34.05;15.82;;;6.40;99.90;;;;;;5061354;28;20471;-59
2021/11/13 02:45:04;;;;;;;27.48;15.88;;;6.50;99.90;;;;;;5056135;28;20036;-62
2021/11/13 02:47:30;;;;;;;35.33;17.95;;;6.50;99.90;;;;;;5055229;28;20025;-61
2021/11/13 02:49:56;;;;;;;31.90;16.88;;;6.60;99.90;;;;;;5056087;28;20090;-62
2021/11/13 02:52:21;;;;;;;32.72;15.13;;;6.60;99.90;;;;;;5058885;28;20112;-64
2021/11/13 02:54:50;;;;;;;31.35;16.63;;;6.60;99.90;;;;;;5057750;28;20028;-60
2021/11/13 02:57:16;;;;;;;31.50;15.77;;;6.60;99.90;;;;;;5060751;28;20495;-63
2021/11/13 02:59:46;;;;;;;29.10;15.77;;;6.60;99.90;;;;;;5057316;28;20025;-60
2021/11/13 03:02:13;;;;;;;28.75;15.57;;;6.70;99.90;;;;;;5055580;28;20048;-63
2021/11/13 03:04:38;;;;;;;33.75;17.90;;;6.70;99.90;;;;;;5056841;28;20506;-62
2021/11/13 03:07:06;;;;;;;30.73;16.23;;;6.70;99.90;;;;;;5058182;28;20063;-62
2021/11/13 03:09:32;;;;;;;35.50;16.70;;;6.70;99.90;;;;;;5060006;28;20020;-60
2021/11/13 03:11:58;;;;;;;30.52;15.32;;;6.70;99.90;;;;;;5058701;28;20391;-64
2021/11/13 03:14:23;;;;;;;33.90;18.23;;;6.70;99.90;;;;;;5054048;28;20021;-63
2021/11/13 03:16:49;;;;;;;34.70;17.55;;;6.80;99.90;;;;;;5057512;28;20021;-63
2021/11/13 03:19:15;;;;;;;30.60;16.23;;;6.80;99.90;;;;;;5041246;28;20032;-62
2021/11/13 03:21:41;;;;;;;30.88;15.55;;;6.80;99.90;;;;;;5051731;28;20155;-59
2021/11/13 03:24:07;;;;;;;31.52;16.02;;;6.80;99.90;;;;;;5051934;28;20029;-61
2021/11/13 03:26:33;;;;;;;35.05;17.30;;;6.80;99.90;;;;;;5064603;28;20070;-61
2021/11/13 03:29:11;;;;;;;33.83;16.63;;;6.80;99.90;;;;;;5055954;28;20116;-59
2021/11/13 03:31:36;;;;;;;34.58;16.48;;;6.80;99.90;;;;;;5053235;28;20086;-61
2021/11/13 03:34:02;;;;;;;30.40;17.10;;;6.80;99.90;;;;;;5076466;22;20029;-64
2021/11/13 03:36:28;;;;;;;31.85;16.80;;;6.80;99.90;;;;;;5094690;28;20763;-65
2021/11/13 03:38:53;;;;;;;33.92;16.10;;;6.80;99.90;;;;;;5087032;28;20024;-62
2021/11/13 03:41:20;;;;;;;33.03;17.48;;;6.90;99.90;;;;;;5086404;28;20050;-64
2021/11/13 03:43:47;;;;;;;33.90;17.33;;;6.90;99.90;;;;;;5071225;28;20433;-62
2021/11/13 03:46:13;;;;;;;32.72;16.73;;;6.90;99.90;;;;;;5088669;28;20024;-63
2021/11/13 03:48:41;;;;;;;37.40;17.60;;;6.90;99.90;;;;;;5087440;28;20048;-62
2021/11/13 03:51:07;;;;;;;34.25;18.42;;;6.90;99.90;;;;;;5087107;28;20023;-64
2021/11/13 03:53:33;;;;;;;36.95;18.83;;;6.90;99.90;;;;;;5089441;28;20020;-62
2021/11/13 03:55:59;;;;;;;42.42;20.10;;;6.80;99.90;;;;;;5075319;28;20077;-63
2021/11/13 03:58:25;;;;;;;38.00;20.00;;;6.80;99.90;;;;;;5094585;28;20068;-62
2021/11/13 04:00:51;;;;;;;44.35;21.05;;;6.70;99.90;;;;;;5073066;28;20052;-64
2021/11/13 04:03:17;;;;;;;46.13;22.23;;;6.70;99.90;;;;;;5093614;28;20028;-63
2021/11/13 04:05:42;;;;;;;41.80;21.35;;;6.80;99.90;;;;;;5085968;28;20479;-64
2021/11/13 04:08:08;;;;;;;47.28;22.55;;;6.70;99.90;;;;;;5088720;28;20020;-63
2021/11/13 04:10:33;;;;;;;44.17;21.73;;;6.80;99.90;;;;;;5089322;28;20036;-63
2021/11/13 04:12:59;;;;;;;49.42;22.70;;;6.80;99.90;;;;;;5088745;28;20443;-64
2021/11/13 04:15:25;;;;;;;54.65;23.63;;;6.70;99.90;;;;;;5089203;28;20027;-63
2021/11/13 04:17:51;;;;;;;46.17;22.33;;;6.70;99.90;;;;;;5088860;28;20027;-63
2021/11/13 04:20:18;;;;;;;51.28;23.25;;;6.60;99.90;;;;;;5088949;28;20394;-63
2021/11/13 04:22:44;;;;;;;47.97;23.70;;;6.60;99.90;;;;;;5089765;28;20032;-63
2021/11/13 04:25:10;;;;;;;45.08;22.58;;;6.70;99.90;;;;;;5088389;28;20047;-63
2021/11/13 04:27:36;;;;;;;52.85;23.73;;;6.60;99.90;;;;;;5088868;28;20039;-63
2021/11/13 04:30:03;;;;;;;50.83;23.83;;;6.60;99.90;;;;;;5087780;28;20032;-62
2021/11/13 04:32:31;;;;;;;53.05;23.13;;;6.60;99.90;;;;;;5089261;28;20398;-63
2021/11/13 04:37:23;;;;;;;51.38;25.42;;;6.50;99.90;;;;;;5089567;28;20055;-63
2021/11/13 04:39:49;;;;;;;59.00;24.92;;;6.50;99.90;;;;;;5087526;28;20035;-64
2021/11/13 04:42:16;;;;;;;62.10;25.92;;;6.40;99.90;;;;;;5091347;28;20502;-64
2021/11/13 04:44:42;;;;;;;52.70;25.70;;;6.40;99.90;;;;;;5088959;28;20024;-64
2021/11/13 04:47:08;;;;;;;52.42;26.13;;;6.50;99.90;;;;;;5091517;28;20040;-64
2021/11/13 04:49:34;;;;;;;60.33;25.40;;;6.40;99.90;;;;;;5086807;28;20059;-66
2021/11/13 04:52:02;;;;;;;61.33;27.17;;;6.40;99.90;;;;;;5088986;28;20074;-65
2021/11/13 04:54:27;;;;;;;62.03;27.67;;;6.40;99.90;;;;;;5088317;28;20440;-64
2021/11/13 04:56:53;;;;;;;62.25;27.42;;;6.40;99.90;;;;;;5088125;28;20028;-64
2021/11/13 04:59:19;;;;;;;65.30;29.05;;;6.30;99.90;;;;;;5090166;28;20046;-62
2021/11/13 05:01:45;;;;;;;63.75;27.40;;;6.40;99.90;;;;;;5088400;28;20501;-64
2021/11/13 05:04:11;;;;;;;60.08;27.25;;;6.30;99.90;;;;;;5089006;28;20036;-65
2021/11/13 05:06:37;;;;;;;65.57;30.42;;;6.40;99.90;;;;;;5092471;28;20035;-62
2021/11/13 05:09:02;;;;;;;66.30;28.33;;;6.40;99.90;;;;;;5092628;28;20039;-64
2021/11/13 05:11:28;;;;;;;69.45;28.27;;;6.40;99.90;;;;;;5097395;28;20028;-64
2021/11/13 05:13:54;;;;;;;66.38;29.42;;;6.50;99.90;;;;;;5091849;28;20093;-65
2021/11/13 05:16:19;;;;;;;60.13;26.15;;;6.50;99.90;;;;;;5090907;28;20030;-64
2021/11/13 05:18:45;;;;;;;70.13;28.55;;;6.50;99.90;;;;;;5092539;28;20032;-63
2021/11/13 05:21:11;;;;;;;62.83;27.27;;;6.50;99.90;;;;;;5092574;28;20063;-64
2021/11/13 05:23:39;;;;;;;56.47;27.08;;;6.40;99.90;;;;;;5074799;28;20032;-64
2021/11/13 05:26:04;;;;;;;69.53;30.20;;;6.50;99.90;;;;;;5091017;28;20032;-66
2021/11/13 05:28:30;;;;;;;63.20;29.27;;;6.50;99.90;;;;;;5091355;28;20547;-65
2021/11/13 05:30:56;;;;;;;61.20;27.23;;;6.50;99.90;;;;;;5097094;28;20101;-65
2021/11/13 05:33:23;;;;;;;66.75;28.17;;;6.50;99.90;;;;;;5091401;28;20035;-65
2021/11/13 05:35:50;;;;;;;68.82;29.30;;;6.60;99.90;;;;;;5091363;28;20374;-65
2021/11/13 05:38:15;;;;;;;67.22;28.08;;;6.50;99.90;;;;;;5091401;28;20028;-65
2021/11/13 05:40:41;;;;;;;60.10;27.70;;;6.60;99.90;;;;;;5091848;28;20036;-64
2021/11/13 05:43:07;;;;;;;68.68;30.73;;;6.60;99.90;;;;;;5090609;28;20040;-65
2021/11/13 05:45:32;;;;;;;66.43;29.67;;;6.60;99.90;;;;;;5088903;28;20070;-63
2021/11/13 05:47:58;;;;;;;69.28;30.05;;;6.60;99.90;;;;;;5089506;28;20389;-65
2021/11/13 05:50:24;;;;;;;61.17;28.05;;;6.60;99.90;;;;;;5092026;28;20024;-65
2021/11/13 05:52:51;;;;;;;68.78;29.33;;;6.60;99.90;;;;;;5094421;28;20028;-63
2021/11/13 05:55:18;;;;;;;64.18;28.95;;;6.60;99.90;;;;;;5090590;28;20422;-65
2021/11/13 05:57:44;;;;;;;69.05;28.85;;;6.60;99.90;;;;;;5091250;28;20020;-63
2021/11/13 06:00:13;;;;;;;60.17;27.33;;;6.70;99.90;;;;;;5090848;28;20104;-64
2021/11/13 06:02:40;;;;;;;69.40;28.67;;;6.60;99.90;;;;;;5090975;28;20028;-63
2021/11/13 06:05:06;;;;;;;63.97;27.83;;;6.70;99.90;;;;;;5088046;28;20032;-64
2021/11/13 06:07:32;;;;;;;72.10;29.75;;;6.70;99.90;;;;;;5089224;28;20024;-63
2021/11/13 06:09:58;;;;;;;64.45;27.20;;;6.70;99.90;;;;;;5082009;28;20051;-64
2021/11/13 06:12:24;;;;;;;62.15;28.90;;;6.80;99.90;;;;;;5090834;28;20474;-66
2021/11/13 06:14:49;;;;;;;62.38;28.55;;;6.80;99.90;;;;;;5089523;28;20020;-64
2021/11/13 06:17:15;;;;;;;64.95;29.08;;;6.80;99.90;;;;;;5093673;28;20038;-64
2021/11/13 06:19:41;;;;;;;57.05;27.08;;;6.80;99.90;;;;;;5089846;28;20023;-63
2021/11/13 06:22:07;;;;;;;56.17;25.45;;;6.80;99.90;;;;;;5088863;28;20032;-63
2021/11/13 06:24:32;;;;;;;70.82;28.50;;;6.80;99.90;;;;;;5087514;28;20533;-64
2021/11/13 06:26:58;;;;;;;59.40;25.17;;;6.80;99.90;;;;;;5090247;28;20032;-65
2021/11/13 06:29:24;;;;;;;59.92;25.83;;;6.90;99.90;;;;;;5089619;28;20482;-64
2021/11/13 06:31:49;;;;;;;60.92;26.75;;;6.90;99.90;;;;;;5090904;28;20123;-63
2021/11/13 06:34:15;;;;;;;58.33;26.98;;;6.90;99.90;;;;;;5087119;28;20039;-63
2021/11/13 06:36:41;;;;;;;57.97;26.15;;;6.90;99.90;;;;;;5091633;28;20065;-63
2021/11/13 06:39:06;;;;;;;55.45;26.42;;;6.90;99.90;;;;;;5090095;28;20039;-64
2021/11/13 06:41:32;;;;;;;55.33;25.25;;;6.90;99.90;;;;;;5090202;28;20032;-65
2021/11/13 06:43:58;;;;;;;58.50;24.13;;;6.90;99.90;;;;;;5090594;28;20504;-64
2021/11/13 06:46:24;;;;;;;57.65;26.15;;;6.90;99.90;;;;;;5090466;28;20557;-64
2021/11/13 06:48:50;;;;;;;57.38;27.00;;;6.90;99.90;;;;;;5077810;28;20107;-64
2021/11/13 06:51:15;;;;;;;67.80;27.00;;;6.90;99.90;;;;;;5091678;28;20032;-64
2021/11/13 06:53:41;;;;;;;56.88;24.15;;;6.90;99.90;;;;;;5086197;28;20088;-63
2021/11/13 06:56:08;;;;;;;53.20;23.80;;;6.90;99.90;;;;;;5083367;28;20020;-64
2021/11/13 06:58:34;;;;;;;60.85;26.92;;;7.00;99.90;;;;;;5088268;28;20099;-63
2021/11/13 07:01:00;;;;;;;59.58;24.88;;;7.00;99.90;;;;;;5089771;28;20024;-63
2021/11/13 07:03:26;;;;;;;58.90;26.05;;;7.00;99.90;;;;;;5089617;28;20090;-64
2021/11/13 07:05:51;;;;;;;55.65;23.48;;;7.00;99.90;;;;;;5089746;28;20020;-63
2021/11/13 07:08:17;;;;;;;63.60;26.55;;;7.00;99.90;;;;;;5090153;28;20081;-64
2021/11/13 07:10:42;;;;;;;59.25;25.35;;;7.00;99.90;;;;;;5088888;28;20024;-65
2021/11/13 07:13:08;;;;;;;57.80;25.80;;;7.00;99.90;;;;;;5089515;28;20024;-64
2021/11/13 07:15:34;;;;;;;69.00;25.67;;;7.10;99.90;;;;;;5094136;28;20026;-63
2021/11/13 07:18:02;;;;;;;62.67;25.13;;;7.10;99.90;;;;;;5070619;28;20020;-63
2021/11/13 07:20:28;;;;;;;51.10;22.80;;;7.10;99.90;;;;;;5085573;28;20020;-65
2021/11/13 07:22:54;;;;;;;56.55;24.67;;;7.10;99.90;;;;;;5094997;28;20035;-64
2021/11/13 07:25:22;;;;;;;51.78;22.30;;;7.10;99.90;;;;;;5087872;28;20031;-63
2021/11/13 07:27:48;;;;;;;62.40;25.45;;;7.20;99.90;;;;;;5089639;28;20024;-62
2021/11/13 07:30:19;;;;;;;54.90;23.58;;;7.20;99.90;;;;;;5088976;28;20031;-59
2021/11/13 07:32:46;;;;;;;55.58;23.58;;;7.30;99.90;;;;;;5089197;28;20096;-61
2021/11/13 07:35:11;;;;;;;52.55;21.48;;;7.30;99.90;;;;;;5089330;28;20031;-61
2021/11/13 07:37:37;;;;;;;49.70;20.45;;;7.40;99.90;;;;;;5093445;28;20523;-63
2021/11/13 07:40:04;;;;;;;48.97;22.33;;;7.40;99.90;;;;;;5092703;28;20533;-63
2021/11/13 07:42:30;;;;;;;44.55;22.27;;;7.40;99.90;;;;;;5094465;28;20056;-61
2021/11/13 07:44:57;;;;;;;46.00;20.73;;;7.50;99.90;;;;;;5089115;28;20074;-61
2021/11/13 07:47:23;;;;;;;44.40;22.45;;;7.50;99.90;;;;;;5087649;28;20402;-62
2021/11/13 07:49:49;;;;;;;60.90;24.52;;;7.50;99.90;;;;;;5088427;28;20028;-63
2021/11/13 07:52:14;;;;;;;47.47;21.95;;;7.50;99.90;;;;;;5088706;28;20031;-61
2021/11/13 07:54:40;;;;;;;48.95;21.90;;;7.50;99.90;;;;;;5091653;28;20074;-64
2021/11/13 07:57:08;;;;;;;44.28;20.98;;;7.60;99.90;;;;;;5089203;28;20023;-62
2021/11/13 07:59:34;;;;;;;45.35;21.23;;;7.60;99.90;;;;;;5087873;28;20068;-60
2021/11/13 08:02:01;;;;;;;43.75;20.80;;;7.70;99.90;;;;;;5087817;28;20039;-60
2021/11/13 08:04:26;;;;;;;46.90;21.30;;;7.70;99.90;;;;;;5088699;28;20051;-59
2021/11/13 08:06:52;;;;;;;48.08;21.40;;;7.70;99.90;;;;;;5089162;28;20494;-61
2021/11/13 08:09:18;;;;;;;48.20;21.42;;;7.80;99.90;;;;;;5088475;28;20443;-63
2021/11/13 08:11:43;;;;;;;47.08;21.58;;;7.80;99.90;;;;;;5089002;28;20028;-60
2021/11/13 08:14:09;;;;;;;47.22;21.10;;;7.80;99.90;;;;;;5087912;28;20020;-60
2021/11/13 08:16:35;;;;;;;48.28;22.55;;;7.90;99.90;;;;;;5088886;28;20456;-61
2021/11/13 08:19:00;;;;;;;46.05;20.58;;;7.80;99.90;;;;;;5096467;28;20040;-60
2021/11/13 08:21:26;;;;;;;39.08;19.38;;;7.80;99.90;;;;;;5087914;28;20051;-60
2021/11/13 08:23:51;;;;;;;45.13;20.58;;;7.80;99.90;;;;;;5086708;28;20038;-58
2021/11/13 08:26:17;;;;;;;40.08;18.33;;;7.90;99.90;;;;;;5088870;28;20052;-61
2021/11/13 08:28:43;;;;;;;43.58;19.00;;;7.90;99.90;;;;;;5089348;28;20495;-61
2021/11/13 08:31:08;;;;;;;41.17;19.33;;;7.90;99.90;;;;;;5086303;28;20020;-59
2021/11/13 08:33:34;;;;;;;37.15;18.10;;;8.00;99.90;;;;;;5087922;28;20111;-61
2021/11/13 08:36:00;;;;;;;39.20;17.58;;;8.00;99.90;;;;;;5086242;28;20028;-59
2021/11/13 08:38:26;;;;;;;35.60;16.50;;;8.00;99.90;;;;;;5086602;28;20028;-59
2021/11/13 08:40:54;;;;;;;31.95;16.77;;;8.10;99.90;;;;;;5089404;28;20020;-62
2021/11/13 08:43:20;;;;;;;29.40;14.43;;;8.10;99.90;;;;;;5090037;28;20059;-60
2021/11/13 08:45:48;;;;;;;35.45;16.98;;;8.10;99.90;;;;;;5088312;28;20050;-62
2021/11/13 08:48:16;;;;;;;26.17;13.00;;;8.10;99.90;;;;;;5090413;28;20547;-63
2021/11/13 08:50:42;;;;;;;31.70;14.60;;;8.20;99.90;;;;;;5090999;28;20032;-63
2021/11/13 08:53:08;;;;;;;28.50;14.25;;;8.20;99.90;;;;;;5091116;28;20119;-62
2021/11/13 08:55:38;;;;;;;31.33;14.88;;;8.30;99.90;;;;;;5090343;28;20081;-63
2021/11/13 08:58:04;;;;;;;24.70;12.25;;;8.30;99.90;;;;;;5088190;28;20078;-61
2021/11/13 09:00:38;;;;;;;28.00;13.52;;;8.30;99.90;;;;;;5090267;28;20114;-60
2021/11/13 09:03:07;;;;;;;23.48;12.63;;;8.30;99.90;;;;;;5086071;28;20149;-63
2021/11/13 09:05:33;;;;;;;25.77;13.60;;;8.40;99.90;;;;;;5086068;28;20040;-63
2021/11/13 09:07:59;;;;;;;25.45;14.10;;;8.40;99.90;;;;;;5090376;28;20055;-59
2021/11/13 09:10:26;;;;;;;32.90;14.15;;;8.50;99.90;;;;;;5091292;28;20017;-62
2021/11/13 09:12:53;;;;;;;22.33;12.80;;;8.50;99.90;;;;;;5087056;28;20407;-61
2021/11/13 09:15:25;;;;;;;28.05;14.20;;;8.60;99.90;;;;;;5080801;28;20021;-59
2021/11/13 09:17:52;;;;;;;24.80;12.65;;;8.60;99.90;;;;;;5081277;28;20066;-61
2021/11/13 09:20:18;;;;;;;21.40;12.05;;;8.70;99.90;;;;;;5077834;28;20121;-62
2021/11/13 09:22:45;;;;;;;25.75;12.85;;;8.70;99.90;;;;;;5084873;28;20052;-60
2021/11/13 09:25:10;;;;;;;25.38;11.77;;;8.70;99.90;;;;;;5082051;28;20120;-60
2021/11/13 09:27:38;;;;;;;22.20;10.93;;;8.80;99.90;;;;;;5081188;28;20114;-61
2021/11/13 09:30:06;;;;;;;21.08;10.48;;;8.80;99.90;;;;;;5082079;28;20036;-61
2021/11/13 09:32:32;;;;;;;25.98;11.07;;;8.80;99.90;;;;;;5078280;28;20028;-61
2021/11/13 09:34:58;;;;;;;22.27;11.02;;;8.90;99.90;;;;;;5100775;22;20060;-64
2021/11/13 09:37:24;;;;;;;20.83;10.23;;;8.90;99.90;;;;;;5073316;28;20035;-64
2021/11/13 09:39:50;;;;;;;20.58;10.73;;;8.90;99.90;;;;;;5063064;28;20115;-64
2021/11/13 09:42:17;;;;;;;20.08;11.05;;;8.90;99.90;;;;;;5066625;28;20100;-62
2021/11/13 09:44:43;;;;;;;13.38;6.93;;;9.00;99.90;;;;;;5065900;28;20094;-64
2021/11/13 09:47:09;;;;;;;13.07;6.85;;;9.10;99.90;;;;;;5054580;28;20483;-64
2021/11/13 09:49:35;;;;;;;12.77;5.72;;;9.10;99.90;;;;;;5043724;28;20072;-64
2021/11/13 09:52:01;;;;;;;6.35;3.67;;;9.20;99.90;;;;;;5047039;28;20064;-63
2021/11/13 09:54:29;;;;;;;10.13;3.67;;;9.30;99.90;;;;;;5047401;28;20532;-64
2021/11/13 09:56:55;;;;;;;5.18;3.97;;;9.30;99.90;;;;;;5044696;28;20067;-64
2021/11/13 09:59:21;;;;;;;4.82;3.17;;;9.40;99.90;;;;;;5051078;28;20491;-64
2021/11/13 10:01:46;;;;;;;6.50;3.90;;;9.40;99.90;;;;;;5050033;28;20029;-63
2021/11/13 10:04:12;;;;;;;6.22;3.90;;;9.40;99.90;;;;;;5048824;28;20476;-64
2021/11/13 10:06:38;;;;;;;8.95;6.03;;;9.50;99.90;;;;;;5051474;28;20467;-64
2021/11/13 10:09:04;;;;;;;7.05;4.03;;;9.50;99.90;;;;;;5048602;28;20029;-64
2021/11/13 10:11:29;;;;;;;6.07;3.35;;;9.50;99.90;;;;;;5050823;28;20071;-61
2021/11/13 10:13:59;;;;;;;6.13;2.92;;;9.50;99.90;;;;;;5047347;28;20592;-64
2021/11/13 10:16:39;;;;;;;7.07;3.15;;;9.60;99.90;;;;;;5047465;28;20017;-64
2021/11/13 10:19:17;;;;;;;3.20;2.17;;;9.60;99.90;;;;;;5042308;28;20031;-63
2021/11/13 10:21:46;;;;;;;8.02;3.13;;;9.60;99.90;;;;;;5045416;28;20033;-63
2021/11/13 10:24:19;;;;;;;4.22;2.60;;;9.60;99.90;;;;;;5039818;28;20062;-64
2021/11/13 10:26:48;;;;;;;3.08;2.33;;;9.70;99.90;;;;;;5045500;28;20108;-63
2021/11/13 10:29:16;;;;;;;7.38;2.47;;;9.80;99.90;;;;;;5045038;28;20032;-62
2021/11/13 10:31:47;;;;;;;7.22;2.83;;;9.80;99.90;;;;;;5044303;28;20047;-62
2021/11/13 10:34:24;;;;;;;5.95;3.13;;;9.90;99.90;;;;;;5042776;28;20272;-62
2021/11/13 10:36:57;;;;;;;6.38;3.00;;;9.90;99.90;;;;;;5045504;28;20115;-63
2021/11/13 10:39:26;;;;;;;5.45;2.92;;;10.00;99.90;;;;;;5044488;28;20491;-63
2021/11/13 10:41:54;;;;;;;9.75;3.30;;;10.10;99.90;;;;;;5044564;28;20037;-63
2021/11/13 10:44:29;;;;;;;4.20;2.78;;;10.10;99.90;;;;;;5044008;28;20538;-61
2021/11/13 10:47:00;;;;;;;7.22;2.70;;;10.20;99.90;;;;;;5045236;28;20037;-63
2021/11/13 10:49:26;;;;;;;6.63;2.55;;;10.30;99.90;;;;;;5044911;28;21082;-62
2021/11/13 10:51:54;;;;;;;6.63;2.67;;;10.30;99.90;;;;;;5042906;28;20442;-64
2021/11/13 10:54:21;;;;;;;4.07;2.83;;;10.30;99.90;;;;;;5042563;28;20028;-63
2021/11/13 10:56:53;;;;;;;5.32;3.05;;;10.30;99.90;;;;;;5043822;28;20029;-62
2021/11/13 10:59:25;;;;;;;5.57;2.28;;;10.30;99.90;;;;;;5043901;28;20505;-63
2021/11/13 11:01:51;;;;;;;2.88;2.20;;;10.40;99.90;;;;;;5042150;28;20029;-63
2021/11/13 11:04:24;;;;;;;4.57;3.47;;;10.40;99.90;;;;;;5042219;28;20044;-63
2021/11/13 11:06:53;;;;;;;3.25;2.85;;;10.40;99.90;;;;;;5044028;28;20475;-62
2021/11/13 11:09:18;;;;;;;5.45;3.20;;;10.40;99.90;;;;;;5042783;28;20060;-63
2021/11/13 11:11:45;;;;;;;4.50;3.08;;;10.50;99.90;;;;;;5043595;28;20524;-61
2021/11/13 11:14:15;;;;;;;5.55;2.88;;;10.50;99.90;;;;;;5043842;28;20025;-63
2021/11/13 11:16:43;;;;;;;4.43;2.85;;;10.50;99.90;;;;;;5042983;28;20382;-63
2021/11/13 11:19:23;;;;;;;2.95;2.63;;;10.40;99.90;;;;;;5042930;28;20412;-63
2021/11/13 11:21:55;;;;;;;6.57;4.13;;;10.40;99.90;;;;;;5043487;28;20037;-63
2021/11/13 11:24:21;;;;;;;5.82;3.45;;;10.50;99.90;;;;;;5042257;28;20032;-63
2021/11/13 11:27:00;;;;;;;6.75;3.28;;;10.50;99.90;;;;;;5043458;28;20033;-64
2021/11/13 11:29:27;;;;;;;10.88;3.63;;;10.50;99.90;;;;;;5042370;28;20033;-64
2021/11/13 11:31:57;;;;;;;6.63;3.47;;;10.50;99.90;;;;;;5042374;28;20017;-61
2021/11/13 11:34:27;;;;;;;14.77;4.28;;;10.50;99.90;;;;;;5044913;28;20056;-63
2021/11/13 11:36:56;;;;;;;7.00;3.15;;;10.50;99.90;;;;;;5043426;28;20524;-62
2021/11/13 11:39:22;;;;;;;9.55;3.35;;;10.50;99.90;;;;;;5044438;28;20491;-60
2021/11/13 11:41:49;;;;;;;4.85;2.80;;;10.50;99.90;;;;;;5044846;28;20035;-64
2021/11/13 11:44:16;;;;;;;5.53;2.88;;;10.50;99.90;;;;;;5045722;28;20025;-62
2021/11/13 11:46:42;;;;;;;3.67;2.60;;;10.50;99.90;;;;;;5043745;28;20024;-63
2021/11/13 11:49:08;;;;;;;3.88;2.33;;;10.50;99.90;;;;;;5045822;28;20033;-62
2021/11/13 11:51:34;;;;;;;4.15;2.38;;;10.50;99.90;;;;;;5044691;28;20036;-63
2021/11/13 11:54:05;;;;;;;4.00;2.50;;;10.50;99.90;;;;;;5044155;28;20414;-62
2021/11/13 11:56:31;;;;;;;5.63;2.53;;;10.50;99.90;;;;;;5043496;28;20029;-62
2021/11/13 11:58:56;;;;;;;5.70;2.60;;;10.50;99.90;;;;;;5044884;28;20398;-61
2021/11/13 12:01:31;;;;;;;3.33;2.67;;;10.50;99.90;;;;;;5046054;28;20037;-62
2021/11/13 12:04:09;;;;;;;4.82;2.13;;;10.50;99.90;;;;;;5044143;28;20132;-62
2021/11/13 12:07:09;;;;;;;4.20;2.50;;;10.50;99.90;;;;;;5043250;28;20533;-62
2021/11/13 12:10:05;;;;;;;5.07;1.73;;;10.50;99.90;;;;;;5030762;28;20075;-63
2021/11/13 12:12:31;;;;;;;2.30;2.00;;;10.50;99.90;;;;;;5044274;28;20060;-63
2021/11/13 12:15:23;;;;;;;5.47;2.28;;;10.60;99.90;;;;;;5044687;28;20121;-61
2021/11/13 12:17:54;;;;;;;3.83;1.95;;;10.60;99.90;;;;;;5048342;28;20017;-62
2021/11/13 12:20:31;;;;;;;3.92;2.38;;;10.70;99.90;;;;;;5048270;28;20028;-61
2021/11/13 12:23:00;;;;;;;6.13;3.10;;;10.70;99.90;;;;;;5047352;28;20502;-62
2021/11/13 12:25:33;;;;;;;5.15;2.75;;;10.70;99.90;;;;;;5047920;28;20039;-60
2021/11/13 12:28:13;;;;;;;4.00;2.78;;;10.70;99.90;;;;;;5046649;28;20044;-58
2021/11/13 12:30:42;;;;;;;4.53;2.28;;;10.70;99.90;;;;;;5045634;28;20064;-60
2021/11/13 12:33:26;;;;;;;9.45;2.95;;;10.70;99.90;;;;;;5048036;28;20025;-61
2021/11/13 12:35:57;;;;;;;4.85;2.97;;;10.70;99.90;;;;;;5047277;28;20036;-62
2021/11/13 12:38:43;;;;;;;6.72;4.28;;;10.70;99.90;;;;;;5053265;28;20017;-63
2021/11/13 12:41:19;;;;;;;17.02;5.22;;;10.70;99.90;;;;;;5054818;28;20025;-63
2021/11/13 12:43:51;;;;;;;13.00;7.13;;;10.70;99.90;;;;;;5050262;28;20029;-64